Duck, NC

11:18 AM EDT on May 26, 2015 (GMT -0400)
Southern Shores,NC | | Change Station
CLOSE
Current Station
Personal Weather Station
Location: Kitty Hawk, NC
Elevation: 43 ft
Nearby Weather Stations

Elev 43 ft 36.14 °N, 75.74 °W | Updated 12 minutes ago

Mostly Cloudy
Mostly Cloudy
78.0 °F
Feels Like 80 °F
N
1.0
Wind Variable Wind from NW
Gusts 8.0 mph

Today
High -- | Low -- °F
--% Chance of Precip.
Yesterday
High -- | Low -- °F
Precip. -- in
5:49 AM 8:10 PM
First Quarter, 59% visible
Pressure 30.33 in
Visibility -9999.0 miles
Clouds Scattered Clouds 2500 ft
Scattered Clouds 3400 ft
Mostly Cloudy 4900 ft
Heat Index 80 °F
Dew Point 68 °F
Humidity 71%
Rainfall 0.00 in
Snow Depth Not available.
UV 5 out of 12
Pollen 5.80 out of 12
Air Quality Not available.
Flu Activity No Activity
METAR KFFA 261455Z AUTO 12005KT SCT025 SCT034 BKN049 26/18 A3033 RMK AO2 T02550182 PWINO

More Conditions Fewer Conditions

Pressure 30.33 in
Visibility -9999.0 miles
Clouds Scattered Clouds 2500 ft
Scattered Clouds 3400 ft
Mostly Cloudy 4900 ft
Heat Index 80 °F
Dew Point 68 °F
Humidity 71%
Rainfall 0.00 in
Snow Depth Not available.
UV 5 out of 12
Pollen 5.80 out of 12
Air Quality Not available.
Flu Activity No Activity
METAR KFFA 261455Z AUTO 12005KT SCT025 SCT034 BKN049 26/18 A3033 RMK AO2 T02550182 PWINO

More Conditions Fewer Conditions

10-Day Weather Forecast

Almanac

Astronomy

May. 26, 2015 Rise Set
Actual Time
Civil Twilight
Nautical Twilight
Astronomical Twilight
Moon
Length of Visible Light
Length of Day
Tomorrow will be .
, % of the Moon is Illuminated

Today's Extremes

State Highs State Lows

Community

WunderPhotos

Upload Photos

1,824,359 photos uploaded!

WunderBlogs® & News

Nearby

Air Quality

  Air Quality AQ Index Pollutant
Not available.

Snow Depth

Station Depth Elevation

Earthquake Activity

City Distance Mag. Time & Date
Minimum magnitude displayed is 2.5.

Coastal Water Temperatures

Place Temperature

Stations

Nearby Weather Stations

Station Location Temp. Windchill Dew Point Humidity Wind Precip. Elev Updated Type